createdAt,value
2022-07-27T00:00:57.872Z,101378.25
2022-07-27T00:03:38.189Z,101382.56
2022-07-27T00:06:17.368Z,101383.56
2022-07-27T00:08:57.224Z,101384.25
2022-07-27T00:11:36.975Z,101381.63
2022-07-27T00:14:16.895Z,101386.81
2022-07-27T00:16:58.646Z,101371.88
2022-07-27T00:19:38.109Z,101374.22
2022-07-27T00:22:17.989Z,101366.44
2022-07-27T00:24:59.675Z,101364.75
2022-07-27T00:27:41.085Z,101361.69
2022-07-27T00:30:22.678Z,101362.34
2022-07-27T00:33:05.501Z,101372.25
2022-07-27T00:35:45.169Z,101372.94
2022-07-27T00:38:25.107Z,101379.13
2022-07-27T00:41:04.867Z,101374.59
2022-07-27T00:43:55.278Z,101374.44
2022-07-27T00:46:35.952Z,101370.94
2022-07-27T00:49:17.098Z,101371.47
2022-07-27T00:51:56.612Z,101370.66
2022-07-27T00:54:38.386Z,101374.22
2022-07-27T00:57:18.099Z,101370.88
2022-07-27T00:59:57.656Z,101376.03
2022-07-27T01:02:37.846Z,101369.69
2022-07-27T01:05:36.468Z,101370.84
2022-07-27T01:08:19.749Z,101366.16
2022-07-27T01:11:00.157Z,101367.94
2022-07-27T01:14:01.413Z,101369.09
2022-07-27T01:16:41.937Z,101381.25
2022-07-27T01:19:22.583Z,101377.78
2022-07-27T01:22:02.465Z,101384.41
2022-07-27T01:24:42.211Z,101383.97
2022-07-27T01:27:24.256Z,101386.31
2022-07-27T01:30:03.414Z,101382.97
2022-07-27T01:32:43.517Z,101376.84
2022-07-27T01:35:22.996Z,101376.50
2022-07-27T01:38:03.010Z,101380.19
2022-07-27T01:40:42.646Z,101376.00
2022-07-27T01:43:24.694Z,101376.84
2022-07-27T01:46:04.437Z,101367.81
2022-07-27T01:48:45.744Z,101371.97
2022-07-27T01:51:25.184Z,101377.47
2022-07-27T01:54:04.250Z,101377.31
2022-07-27T01:56:44.712Z,101377.47
2022-07-27T01:59:24.473Z,101378.47
2022-07-27T02:02:04.335Z,101370.53
2022-07-27T02:04:46.190Z,101372.72
2022-07-27T02:07:25.594Z,101378.38
2022-07-27T02:10:08.327Z,101379.34
2022-07-27T02:12:48.364Z,101369.50
2022-07-27T02:15:43.344Z,101373.47
2022-07-27T02:18:33.115Z,101368.91
2022-07-27T02:21:18.629Z,101364.88
2022-07-27T02:24:00.075Z,101368.16
2022-07-27T02:26:39.725Z,101365.34
2022-07-27T02:29:19.241Z,101367.53
2022-07-27T02:31:58.948Z,101368.53
2022-07-27T02:34:38.820Z,101370.81
2022-07-27T02:37:18.586Z,101373.72
2022-07-27T02:39:58.415Z,101380.38
2022-07-27T02:42:40.243Z,101370.97
2022-07-27T02:45:22.318Z,101379.38
2022-07-27T02:48:01.435Z,101373.50
2022-07-27T02:50:40.889Z,101382.25
2022-07-27T02:53:22.661Z,101385.66
2022-07-27T02:56:02.025Z,101380.06
2022-07-27T02:58:44.099Z,101380.69
2022-07-27T03:01:24.975Z,101384.72
2022-07-27T03:04:07.277Z,101378.03
2022-07-27T03:06:47.729Z,101380.31
2022-07-27T03:09:33.123Z,101381.69
2022-07-27T03:12:13.719Z,101373.97
2022-07-27T03:14:53.541Z,101371.69
2022-07-27T03:17:33.798Z,101376.81
2022-07-27T03:20:13.431Z,101375.97
2022-07-27T03:22:55.139Z,101384.69
2022-07-27T03:26:09.428Z,101385.03
2022-07-27T03:28:50.053Z,101386.34
2022-07-27T03:31:29.902Z,101382.28
2022-07-27T03:34:09.637Z,101386.94
2022-07-27T03:36:48.333Z,101393.13
2022-07-27T03:39:27.597Z,101386.50
2022-07-27T03:42:10.028Z,101387.03
2022-07-27T03:44:51.902Z,101394.16
2022-07-27T03:47:31.829Z,101399.34
2022-07-27T03:50:13.668Z,101396.66
2022-07-27T03:52:53.273Z,101393.16
2022-07-27T03:55:32.901Z,101397.03
2022-07-27T03:58:12.685Z,101389.16
2022-07-27T04:01:03.242Z,101395.16
2022-07-27T04:03:44.442Z,101392.19
2022-07-27T04:06:25.759Z,101395.31
2022-07-27T04:09:09.155Z,101395.84
2022-07-27T04:12:20.403Z,101396.69
2022-07-27T04:15:04.726Z,101398.06
2022-07-27T04:17:55.306Z,101398.91
2022-07-27T04:20:39.442Z,101399.75
2022-07-27T04:23:20.836Z,101391.06
2022-07-27T04:26:00.255Z,101388.69
2022-07-27T04:28:42.104Z,101394.47
2022-07-27T04:31:21.750Z,101392.97
2022-07-27T04:34:03.285Z,101395.84
2022-07-27T04:36:42.723Z,101405.69
2022-07-27T04:39:24.792Z,101398.97
2022-07-27T04:42:08.204Z,101398.06
2022-07-27T04:44:48.676Z,101397.47
2022-07-27T04:47:28.307Z,101395.59
2022-07-27T04:50:10.011Z,101396.19
2022-07-27T04:52:48.341Z,101395.44
2022-07-27T04:55:27.771Z,101403.81
2022-07-27T04:58:07.531Z,101391.25
2022-07-27T05:00:47.487Z,101394.97
2022-07-27T05:03:30.009Z,101402.56
2022-07-27T05:06:12.184Z,101404.13
2022-07-27T05:08:53.568Z,101404.38
2022-07-27T05:11:32.990Z,101400.59
2022-07-27T05:14:12.811Z,101398.69
2022-07-27T05:16:52.642Z,101407.41
2022-07-27T05:19:43.180Z,101410.78
2022-07-27T05:22:23.682Z,101411.53
2022-07-27T05:25:06.177Z,101414.94
2022-07-27T05:27:54.668Z,101417.47
2022-07-27T05:30:34.487Z,101412.88
2022-07-27T05:33:16.274Z,101419.47
2022-07-27T05:35:55.911Z,101414.69
2022-07-27T05:38:39.382Z,101420.59
2022-07-27T05:41:24.728Z,101420.63
2022-07-27T05:44:04.771Z,101423.19
2022-07-27T05:46:44.422Z,101428.22
2022-07-27T05:49:25.664Z,101434.25
2022-07-27T05:52:07.680Z,101428.91
2022-07-27T05:54:48.946Z,101438.81
2022-07-27T05:57:28.290Z,101444.88
2022-07-27T06:00:19.153Z,101454.25
2022-07-27T06:02:59.291Z,101450.47
2022-07-27T06:05:39.126Z,101458.16
2022-07-27T06:08:20.923Z,101446.13
2022-07-27T06:11:02.390Z,101452.13
2022-07-27T06:13:42.554Z,101455.13
2022-07-27T06:16:24.358Z,101445.59
2022-07-27T06:19:06.027Z,101451.59
2022-07-27T06:21:51.587Z,101457.13
2022-07-27T06:24:34.500Z,101465.34
2022-07-27T06:27:15.205Z,101452.25
2022-07-27T06:29:55.029Z,101457.25
2022-07-27T06:32:35.108Z,101456.06
2022-07-27T06:35:15.103Z,101452.50
2022-07-27T06:37:54.827Z,101456.50
2022-07-27T06:40:36.391Z,101459.31
2022-07-27T06:43:17.777Z,101453.53
2022-07-27T06:45:58.175Z,101454.16
2022-07-27T06:48:41.082Z,101458.47
2022-07-27T06:51:21.691Z,101454.59
2022-07-27T06:54:01.295Z,101454.81
2022-07-27T06:56:41.062Z,101451.09
2022-07-27T06:59:22.861Z,101441.69
2022-07-27T07:02:02.261Z,101455.56
2022-07-27T07:04:42.067Z,101450.28
2022-07-27T07:07:22.106Z,101455.41
2022-07-27T07:10:01.632Z,101458.56
2022-07-27T07:12:41.715Z,101459.34
2022-07-27T07:15:24.700Z,101456.75
2022-07-27T07:18:06.692Z,101456.38
2022-07-27T07:20:48.382Z,101458.75
2022-07-27T07:23:28.829Z,101453.16
2022-07-27T07:26:10.736Z,101455.41
2022-07-27T07:28:50.072Z,101461.56
2022-07-27T07:31:28.650Z,101458.28
2022-07-27T07:34:10.087Z,101459.97
2022-07-27T07:36:49.366Z,101456.59
2022-07-27T07:39:31.764Z,101455.25
2022-07-27T07:42:12.334Z,101449.78
2022-07-27T07:44:51.975Z,101457.91
2022-07-27T07:47:33.919Z,101458.41
2022-07-27T07:50:13.192Z,101463.13
2022-07-27T07:52:54.515Z,101472.78
2022-07-27T07:55:35.408Z,101459.22
2022-07-27T07:58:15.876Z,101461.72
2022-07-27T08:00:56.895Z,101457.09
2022-07-27T08:03:37.017Z,101454.06
2022-07-27T08:06:16.903Z,101455.97
2022-07-27T08:08:56.730Z,101449.97
2022-07-27T08:11:36.610Z,101445.66
2022-07-27T08:14:16.326Z,101455.72
2022-07-27T08:16:59.139Z,101457.56
2022-07-27T08:19:40.377Z,101445.09
2022-07-27T08:22:39.908Z,101453.78
2022-07-27T08:25:19.528Z,101460.41
2022-07-27T08:28:00.113Z,101452.38
2022-07-27T08:30:44.358Z,101457.53
2022-07-27T08:33:27.392Z,101454.47
2022-07-27T08:36:07.924Z,101449.72
2022-07-27T08:38:50.222Z,101449.88
2022-07-27T08:41:30.446Z,101448.22
2022-07-27T08:44:14.237Z,101445.00
2022-07-27T08:46:54.547Z,101443.75
2022-07-27T08:49:43.126Z,101441.41
2022-07-27T08:52:23.450Z,101449.69
2022-07-27T08:55:03.329Z,101448.13
2022-07-27T08:57:42.808Z,101444.44
2022-07-27T09:00:23.472Z,101439.94
2022-07-27T09:03:06.537Z,101439.63
2022-07-27T09:05:48.640Z,101437.19
2022-07-27T09:08:31.682Z,101439.53
2022-07-27T09:11:26.512Z,101441.13
2022-07-27T09:14:08.502Z,101441.13
2022-07-27T09:19:58.437Z,101449.28
2022-07-27T09:22:43.163Z,101443.22
2022-07-27T09:26:00.459Z,101447.09
2022-07-27T09:28:31.530Z,101457.50
2022-07-27T09:31:14.080Z,101446.91
2022-07-27T09:33:56.233Z,101439.84
2022-07-27T09:36:50.644Z,101445.47
2022-07-27T09:39:35.138Z,101451.28
2022-07-27T09:43:05.774Z,101445.88
2022-07-27T09:45:32.647Z,101451.09
2022-07-27T09:48:27.113Z,101438.56
2022-07-27T09:51:55.816Z,101437.94
2022-07-27T09:54:09.877Z,101440.47
2022-07-27T09:57:00.486Z,101438.38
2022-07-27T09:59:40.011Z,101436.66
2022-07-27T10:02:19.720Z,101430.91
2022-07-27T10:04:59.589Z,101442.72
2022-07-27T10:07:39.230Z,101446.28
2022-07-27T10:10:20.532Z,101440.56
2022-07-27T10:13:00.416Z,101428.16
2022-07-27T10:15:41.233Z,101435.34
2022-07-27T10:18:28.898Z,101435.84
2022-07-27T10:21:11.563Z,101432.75
2022-07-27T10:23:58.585Z,101440.13
2022-07-27T10:26:39.735Z,101441.69
2022-07-27T10:29:20.292Z,101445.06
2022-07-27T10:32:02.255Z,101437.94
2022-07-27T10:34:44.373Z,101439.50
2022-07-27T10:37:28.550Z,101438.25
2022-07-27T10:40:27.624Z,101439.81
2022-07-27T10:43:11.588Z,101449.59
2022-07-27T10:46:02.614Z,101442.41
2022-07-27T10:48:49.162Z,101446.38
2022-07-27T10:51:36.775Z,101452.94
2022-07-27T10:54:23.458Z,101447.88
2022-07-27T10:57:06.488Z,101450.81
2022-07-27T11:00:11.991Z,101443.44
2022-07-27T11:02:52.242Z,101446.22
2022-07-27T11:05:59.171Z,101452.00
2022-07-27T11:08:38.321Z,101450.47
2022-07-27T11:11:26.290Z,101448.56
2022-07-27T11:14:06.725Z,101444.38
2022-07-27T11:16:55.901Z,101448.91
2022-07-27T11:19:35.830Z,101443.00
2022-07-27T11:22:28.825Z,101432.59
2022-07-27T11:25:09.065Z,101430.06
2022-07-27T11:27:50.789Z,101435.94
2022-07-27T11:30:29.968Z,101431.81
2022-07-27T11:33:09.303Z,101442.78
2022-07-27T11:35:54.082Z,101441.41
2022-07-27T11:38:52.647Z,101428.34
2022-07-27T11:42:09.081Z,101432.56
2022-07-27T11:44:38.630Z,101430.13
2022-07-27T11:47:24.001Z,101436.38
2022-07-27T11:50:17.245Z,101445.00
2022-07-27T11:53:01.979Z,101443.44
2022-07-27T11:55:49.520Z,101433.28
2022-07-27T11:58:28.829Z,101442.16
2022-07-27T12:01:08.540Z,101450.28
2022-07-27T12:03:48.365Z,101447.81
2022-07-27T12:06:28.244Z,101454.19
2022-07-27T12:09:09.353Z,101456.16
2022-07-27T12:12:09.097Z,101442.59
2022-07-27T12:14:51.013Z,101442.38
2022-07-27T12:17:34.248Z,101443.31
2022-07-27T12:20:35.453Z,101444.25
2022-07-27T12:23:16.956Z,101435.50
2022-07-27T12:25:56.582Z,101444.19
2022-07-27T12:28:34.944Z,101439.09
2022-07-27T12:31:19.916Z,101435.88
2022-07-27T12:34:06.208Z,101423.81
2022-07-27T12:36:48.480Z,101425.22
2022-07-27T12:39:29.104Z,101429.50
2022-07-27T12:42:10.977Z,101436.94
2022-07-27T12:44:54.273Z,101441.47
2022-07-27T12:47:41.477Z,101442.41
2022-07-27T12:50:29.462Z,101441.94
2022-07-27T12:53:13.237Z,101442.00
2022-07-27T12:55:55.637Z,101437.09
2022-07-27T12:58:37.261Z,101436.75
2022-07-27T13:01:17.145Z,101433.38
2022-07-27T13:03:57.051Z,101433.84
2022-07-27T13:06:36.720Z,101439.06
2022-07-27T13:09:16.953Z,101437.88
2022-07-27T13:12:02.794Z,101437.19
2022-07-27T13:14:43.392Z,101427.59
2022-07-27T13:17:25.028Z,101419.19
2022-07-27T13:20:09.744Z,101419.78
2022-07-27T13:22:53.468Z,101420.47
2022-07-27T13:25:33.048Z,101417.53
2022-07-27T13:28:13.185Z,101412.66
2022-07-27T13:30:53.309Z,101414.78
2022-07-27T13:33:37.758Z,101408.50
2022-07-27T13:36:17.112Z,101411.72
2022-07-27T13:38:56.605Z,101410.19
2022-07-27T13:41:39.556Z,101414.69
2022-07-27T13:44:49.976Z,101412.44
2022-07-27T13:47:22.830Z,101424.28
2022-07-27T13:50:04.956Z,101419.41
2022-07-27T13:52:44.784Z,101419.66
2022-07-27T13:55:32.625Z,101419.91
2022-07-27T13:58:25.000Z,101430.41
2022-07-27T14:01:07.682Z,101423.84
2022-07-27T14:03:52.275Z,101421.66
2022-07-27T14:06:40.123Z,101420.84
2022-07-27T14:09:21.876Z,101417.94
2022-07-27T14:12:03.550Z,101419.34
2022-07-27T14:14:43.771Z,101419.00
2022-07-27T14:17:23.904Z,101419.78
2022-07-27T14:20:03.386Z,101411.84
2022-07-27T14:22:43.157Z,101412.84
2022-07-27T14:26:05.642Z,101407.41
2022-07-27T14:28:46.885Z,101403.78
2022-07-27T14:31:27.115Z,101393.75
2022-07-27T14:34:09.787Z,101399.06
2022-07-27T14:36:49.376Z,101394.91
2022-07-27T14:39:31.133Z,101387.22
2022-07-27T14:42:11.413Z,101397.25
2022-07-27T14:44:51.894Z,101393.66
2022-07-27T14:47:32.341Z,101401.00
2022-07-27T14:50:28.169Z,101402.53
2022-07-27T14:53:07.862Z,101402.53
2022-07-27T14:55:47.607Z,101411.75
2022-07-27T14:58:27.732Z,101407.06
2022-07-27T15:01:07.338Z,101407.78
2022-07-27T15:03:49.204Z,101396.53
2022-07-27T15:06:27.386Z,101393.22
2022-07-27T15:09:08.711Z,101409.16
2022-07-27T15:11:48.091Z,101409.63
2022-07-27T15:14:28.125Z,101407.19
2022-07-27T15:17:09.684Z,101412.19
2022-07-27T15:19:51.676Z,101410.13
2022-07-27T15:22:32.274Z,101410.63
2022-07-27T15:25:13.916Z,101409.19
2022-07-27T15:27:53.400Z,101403.19
2022-07-27T15:30:38.194Z,101405.66
2022-07-27T15:33:19.346Z,101410.84
2022-07-27T15:35:59.205Z,101406.69
2022-07-27T15:38:52.307Z,101408.13
2022-07-27T15:41:34.583Z,101404.41
2022-07-27T15:44:15.160Z,101404.81
2022-07-27T15:46:55.316Z,101408.19
2022-07-27T15:49:36.741Z,101409.19
2022-07-27T15:52:16.117Z,101405.88
2022-07-27T15:54:56.809Z,101408.13
2022-07-27T15:57:37.465Z,101409.00
2022-07-27T16:00:17.439Z,101400.88
2022-07-27T16:02:58.598Z,101410.69
2022-07-27T16:05:41.750Z,101413.19
2022-07-27T16:08:21.687Z,101411.09
2022-07-27T16:11:01.489Z,101402.94
2022-07-27T16:13:41.377Z,101405.91
2022-07-27T16:16:25.537Z,101402.38
2022-07-27T16:19:13.366Z,101400.31
2022-07-27T16:21:55.019Z,101407.16
2022-07-27T16:24:39.106Z,101410.72
2022-07-27T16:27:21.317Z,101403.63
2022-07-27T16:30:02.677Z,101404.47
2022-07-27T16:32:44.064Z,101397.03
2022-07-27T16:35:24.448Z,101391.75
2022-07-27T16:38:05.027Z,101395.94
2022-07-27T16:40:44.700Z,101398.88
2022-07-27T16:43:23.267Z,101399.09
2022-07-27T16:46:18.479Z,101383.69
2022-07-27T16:48:58.572Z,101396.16
2022-07-27T16:51:38.444Z,101390.75
2022-07-27T16:54:18.186Z,101400.97
2022-07-27T16:56:58.888Z,101397.03
2022-07-27T16:59:41.521Z,101397.25
2022-07-27T17:02:22.846Z,101404.16
2022-07-27T17:05:02.225Z,101398.34
2022-07-27T17:07:42.784Z,101407.94
2022-07-27T17:10:26.973Z,101399.19
2022-07-27T17:13:13.534Z,101403.38
2022-07-27T17:15:54.431Z,101397.53
2022-07-27T17:18:39.850Z,101397.75
2022-07-27T17:21:20.254Z,101399.59
2022-07-27T17:24:00.088Z,101409.41
2022-07-27T17:26:39.856Z,101406.69
2022-07-27T17:29:19.641Z,101401.69
2022-07-27T17:31:59.454Z,101406.06
2022-07-27T17:34:41.044Z,101405.03
2022-07-27T17:37:20.753Z,101405.41
2022-07-27T17:40:00.511Z,101398.97
2022-07-27T17:42:42.329Z,101405.38
2022-07-27T17:45:21.778Z,101401.69
2022-07-27T17:48:01.525Z,101398.72
2022-07-27T17:50:43.355Z,101395.53
2022-07-27T17:53:24.516Z,101399.44
2022-07-27T17:56:24.979Z,101392.16
2022-07-27T17:59:20.410Z,101397.97
2022-07-27T18:02:05.578Z,101395.63
2022-07-27T18:04:47.479Z,101388.56
2022-07-27T18:07:28.178Z,101399.13
2022-07-27T18:10:10.766Z,101398.06
2022-07-27T18:13:03.807Z,101398.84
2022-07-27T18:15:51.171Z,101397.56
2022-07-27T18:18:33.018Z,101404.63
2022-07-27T18:21:15.027Z,101406.09
2022-07-27T18:23:54.779Z,101409.63
2022-07-27T18:26:34.592Z,101408.28
2022-07-27T18:29:25.604Z,101399.16
2022-07-27T18:32:05.967Z,101407.22
2022-07-27T18:34:45.407Z,101407.22
2022-07-27T18:37:30.436Z,101405.97
2022-07-27T18:40:22.607Z,101413.16
2022-07-27T18:43:05.629Z,101413.13
2022-07-27T18:45:47.078Z,101414.56
2022-07-27T18:48:27.530Z,101414.69
2022-07-27T18:51:21.915Z,101411.53
2022-07-27T18:54:01.973Z,101418.72
2022-07-27T18:56:42.856Z,101418.41
2022-07-27T18:59:23.356Z,101424.97
2022-07-27T19:02:05.164Z,101429.91
2022-07-27T19:04:46.845Z,101425.81
2022-07-27T19:07:30.772Z,101438.41
2022-07-27T19:10:32.848Z,101443.06
2022-07-27T19:13:13.402Z,101439.44
2022-07-27T19:15:54.116Z,101442.59
2022-07-27T19:18:36.061Z,101447.81
2022-07-27T19:21:16.532Z,101456.28
2022-07-27T19:23:56.750Z,101454.16
2022-07-27T19:26:37.124Z,101464.19
2022-07-27T19:29:17.953Z,101468.09
2022-07-27T19:31:57.778Z,101471.41
2022-07-27T19:34:45.768Z,101477.06
2022-07-27T19:37:31.733Z,101478.50
2022-07-27T19:40:42.812Z,101481.75
2022-07-27T19:43:14.673Z,101490.94
2022-07-27T19:45:55.347Z,101495.91
2022-07-27T19:48:33.787Z,101490.06
2022-07-27T19:51:11.959Z,101492.94
2022-07-27T19:53:51.676Z,101499.84
2022-07-27T19:56:35.385Z,101499.63
2022-07-27T19:59:17.401Z,101502.81
2022-07-27T20:02:10.766Z,101508.94
2022-07-27T20:04:50.411Z,101517.25
2022-07-27T20:07:28.993Z,101517.13
2022-07-27T20:10:09.503Z,101523.19
2022-07-27T20:12:49.850Z,101524.94
2022-07-27T20:15:30.128Z,101522.78
2022-07-27T20:18:09.604Z,101530.69
2022-07-27T20:20:50.275Z,101523.84
2022-07-27T20:23:30.696Z,101529.09
2022-07-27T20:26:12.233Z,101527.25
2022-07-27T20:28:52.002Z,101534.50
2022-07-27T20:31:31.739Z,101533.84
2022-07-27T20:34:11.531Z,101533.19
2022-07-27T20:36:51.964Z,101531.34
2022-07-27T20:39:33.069Z,101537.69
2022-07-27T20:42:12.563Z,101535.34
2022-07-27T20:44:51.080Z,101542.06
2022-07-27T20:47:34.512Z,101542.59
2022-07-27T20:50:15.659Z,101534.19
2022-07-27T20:52:55.006Z,101547.28
2022-07-27T20:55:35.087Z,101549.63
2022-07-27T20:58:16.595Z,101548.97
2022-07-27T21:00:55.980Z,101551.00
2022-07-27T21:03:38.276Z,101553.66
2022-07-27T21:06:18.778Z,101554.00
2022-07-27T21:08:58.665Z,101553.13
2022-07-27T21:11:38.519Z,101556.47
2022-07-27T21:24:41.876Z,101570.50
2022-07-27T21:27:24.449Z,101574.47
2022-07-27T21:30:05.358Z,101577.31
2022-07-27T21:32:45.839Z,101579.63
2022-07-27T21:35:25.326Z,101585.66
2022-07-27T21:38:07.141Z,101581.59
2022-07-27T21:40:48.445Z,101586.28
2022-07-27T21:43:27.866Z,101590.28
2022-07-27T21:46:08.040Z,101589.88
2022-07-27T21:48:50.653Z,101585.38
2022-07-27T21:51:34.631Z,101589.53
2022-07-27T21:54:19.159Z,101586.34
2022-07-27T21:57:01.600Z,101588.50
2022-07-27T21:59:43.020Z,101590.13
2022-07-27T22:02:22.791Z,101594.28
2022-07-27T22:05:09.607Z,101593.94
2022-07-27T22:08:00.853Z,101590.34
2022-07-27T22:10:55.126Z,101591.50
2022-07-27T22:13:35.285Z,101605.03
2022-07-27T22:16:16.659Z,101594.13
2022-07-27T22:19:00.113Z,101600.63
2022-07-27T22:21:45.426Z,101599.09
2022-07-27T22:24:25.360Z,101593.91
2022-07-27T22:27:05.786Z,101597.06
2022-07-27T22:29:48.116Z,101594.09
2022-07-27T22:32:29.645Z,101597.75
2022-07-27T22:35:11.428Z,101594.69
2022-07-27T22:37:50.817Z,101598.44
2022-07-27T22:40:29.323Z,101592.94
2022-07-27T22:43:08.809Z,101599.28
2022-07-27T22:45:51.807Z,101600.41
2022-07-27T22:48:31.633Z,101599.06
2022-07-27T22:51:11.343Z,101594.88
2022-07-27T22:53:49.875Z,101603.03
2022-07-27T22:56:29.339Z,101597.13
2022-07-27T22:59:10.721Z,101596.59
2022-07-27T23:01:49.317Z,101593.25
2022-07-27T23:04:28.777Z,101595.53
2022-07-27T23:07:10.634Z,101600.38
2022-07-27T23:09:57.077Z,101595.59
2022-07-27T23:12:39.760Z,101596.75
2022-07-27T23:15:19.254Z,101599.03
2022-07-27T23:17:59.010Z,101603.03
2022-07-27T23:20:40.898Z,101606.41
2022-07-27T23:23:22.279Z,101604.66
2022-07-27T23:26:08.412Z,101601.44
2022-07-27T23:28:49.450Z,101608.75
2022-07-27T23:31:28.066Z,101603.41
2022-07-27T23:34:07.677Z,101598.84
2022-07-27T23:36:47.532Z,101595.94
2022-07-27T23:39:28.737Z,101597.47
2022-07-27T23:42:08.835Z,101599.84
2022-07-27T23:44:47.029Z,101585.44
2022-07-27T23:47:25.369Z,101599.09
2022-07-27T23:50:05.363Z,101592.63
2022-07-27T23:53:05.080Z,101597.44
2022-07-27T23:55:50.325Z,101589.28
2022-07-27T23:58:29.815Z,101593.78
